createdAt,value
2019-03-27T00:02:30.329Z,25.20
2019-03-27T00:05:01.719Z,28.80
2019-03-27T00:07:33.210Z,30.70
2019-03-27T00:10:05.055Z,31.23
2019-03-27T00:12:36.408Z,30.80
2019-03-27T00:15:13.279Z,29.30
2019-03-27T00:17:42.499Z,32.75
2019-03-27T00:20:14.383Z,38.30
2019-03-27T00:22:45.782Z,41.40
2019-03-27T00:25:17.170Z,45.73
2019-03-27T00:27:48.510Z,44.60
2019-03-27T00:30:20.104Z,34.80
2019-03-27T00:32:51.480Z,38.33
2019-03-27T00:35:22.859Z,40.08
2019-03-27T00:37:54.265Z,36.77
2019-03-27T00:40:25.676Z,37.73
2019-03-27T00:42:57.058Z,42.48
2019-03-27T00:45:28.489Z,41.70
2019-03-27T00:48:00.484Z,54.03
2019-03-27T00:50:32.428Z,55.52
2019-03-27T00:53:03.876Z,45.58
2019-03-27T00:55:35.888Z,33.78
2019-03-27T00:58:07.275Z,31.55
2019-03-27T01:01:17.753Z,21.52
2019-03-27T01:03:49.104Z,11.60
2019-03-27T01:06:20.516Z,13.55
2019-03-27T01:08:51.912Z,16.52
2019-03-27T01:11:23.336Z,18.87
2019-03-27T01:13:54.741Z,11.57
2019-03-27T01:16:26.135Z,11.90
2019-03-27T01:18:57.505Z,9.23
2019-03-27T01:21:29.148Z,8.15
2019-03-27T01:24:00.660Z,9.48
2019-03-27T01:26:32.062Z,7.65
2019-03-27T01:29:04.548Z,9.48
2019-03-27T01:31:35.949Z,10.18
2019-03-27T01:34:07.333Z,9.15
2019-03-27T01:36:38.728Z,10.58
2019-03-27T01:39:10.096Z,9.50
2019-03-27T01:41:41.717Z,5.92
2019-03-27T01:44:13.116Z,13.65
2019-03-27T01:46:45.527Z,8.90
2019-03-27T01:49:16.877Z,7.70
2019-03-27T01:51:48.273Z,8.85
2019-03-27T01:54:19.617Z,11.18
2019-03-27T01:56:50.996Z,6.50
2019-03-27T01:59:22.368Z,4.35
2019-03-27T02:01:53.766Z,7.28
2019-03-27T02:04:25.131Z,4.00
2019-03-27T02:06:56.521Z,7.33
2019-03-27T02:09:27.924Z,2.62
2019-03-27T02:11:59.325Z,3.35
2019-03-27T02:14:30.757Z,5.70
2019-03-27T02:17:02.148Z,5.37
2019-03-27T02:19:33.810Z,4.90
2019-03-27T02:22:05.197Z,7.17
2019-03-27T02:24:36.565Z,7.65
2019-03-27T02:27:07.980Z,8.13
2019-03-27T02:29:39.327Z,6.58
2019-03-27T02:32:10.709Z,7.05
2019-03-27T02:34:42.079Z,6.37
2019-03-27T02:37:13.441Z,5.97
2019-03-27T02:39:44.778Z,5.28
2019-03-27T02:42:16.211Z,7.72
2019-03-27T02:44:47.584Z,13.62
2019-03-27T02:47:18.952Z,11.90
2019-03-27T02:49:50.338Z,11.70
2019-03-27T02:52:21.694Z,9.08
2019-03-27T02:54:53.087Z,8.65
2019-03-27T02:57:24.489Z,8.38
2019-03-27T02:59:55.834Z,8.50
2019-03-27T03:02:27.192Z,6.95
2019-03-27T03:04:58.558Z,5.78
2019-03-27T03:07:29.938Z,5.53
2019-03-27T03:10:01.305Z,10.40
2019-03-27T03:12:32.758Z,8.10
2019-03-27T03:15:04.555Z,8.28
2019-03-27T03:17:37.007Z,7.00
2019-03-27T03:20:08.933Z,7.28
2019-03-27T03:22:40.301Z,7.58
2019-03-27T03:25:12.972Z,4.95
2019-03-27T03:27:44.345Z,5.30
2019-03-27T03:30:15.923Z,5.55
2019-03-27T03:32:47.314Z,6.12
2019-03-27T03:35:18.678Z,4.35
2019-03-27T03:37:50.065Z,5.28
2019-03-27T03:40:21.430Z,5.97
2019-03-27T03:42:52.817Z,6.65
2019-03-27T03:45:24.189Z,5.08
2019-03-27T03:47:55.596Z,7.15
2019-03-27T03:50:44.357Z,5.83
2019-03-27T03:53:17.090Z,6.92
2019-03-27T03:55:50.266Z,8.30
2019-03-27T03:58:25.096Z,7.05
2019-03-27T04:00:57.266Z,7.25
2019-03-27T04:03:30.558Z,6.33
2019-03-27T04:06:01.967Z,7.75
2019-03-27T04:08:33.515Z,6.08
2019-03-27T04:11:05.464Z,5.55
2019-03-27T04:13:39.109Z,8.10
2019-03-27T04:16:11.664Z,3.47
2019-03-27T04:18:43.169Z,5.95
2019-03-27T04:21:14.558Z,4.22
2019-03-27T04:23:45.915Z,5.22
2019-03-27T04:26:17.300Z,7.80
2019-03-27T04:28:48.684Z,9.15
2019-03-27T04:31:20.059Z,6.72
2019-03-27T04:33:51.442Z,9.43
2019-03-27T04:36:24.512Z,7.25
2019-03-27T04:39:16.461Z,4.80
2019-03-27T04:41:51.140Z,8.08
2019-03-27T04:44:27.716Z,10.43
2019-03-27T04:47:31.506Z,6.87
2019-03-27T04:50:13.477Z,6.95
2019-03-27T04:52:45.620Z,6.05
2019-03-27T04:55:17.009Z,9.23
2019-03-27T04:57:48.404Z,5.80
2019-03-27T05:00:19.925Z,6.37
2019-03-27T05:02:52.812Z,7.05
2019-03-27T05:05:24.240Z,7.03
2019-03-27T05:07:55.626Z,5.87
2019-03-27T05:10:27.077Z,7.05
2019-03-27T05:12:58.496Z,7.40
2019-03-27T05:15:32.306Z,8.38
2019-03-27T05:18:03.376Z,7.30
2019-03-27T05:20:34.810Z,8.50
2019-03-27T05:23:06.220Z,6.20
2019-03-27T05:25:37.584Z,7.40
2019-03-27T05:28:09.011Z,9.73
2019-03-27T05:30:40.438Z,11.25
2019-03-27T05:33:11.855Z,10.55
2019-03-27T05:35:43.292Z,12.75
2019-03-27T05:38:14.677Z,11.53
2019-03-27T05:40:46.044Z,12.55
2019-03-27T05:43:17.424Z,12.65
2019-03-27T05:45:48.784Z,10.25
2019-03-27T05:48:20.158Z,11.50
2019-03-27T05:50:51.540Z,13.70
2019-03-27T05:53:22.937Z,9.43
2019-03-27T05:55:54.316Z,9.85
2019-03-27T05:58:26.696Z,9.28
2019-03-27T06:00:58.105Z,10.28
2019-03-27T06:03:29.477Z,10.90
2019-03-27T06:06:00.894Z,8.93
2019-03-27T06:08:32.272Z,12.00
2019-03-27T06:11:03.681Z,6.37
2019-03-27T06:13:35.079Z,8.98
2019-03-27T06:16:06.464Z,6.03
2019-03-27T06:18:37.812Z,5.62
2019-03-27T06:21:09.236Z,6.15
2019-03-27T06:23:40.651Z,6.03
2019-03-27T06:26:12.060Z,6.08
2019-03-27T06:28:43.404Z,5.70
2019-03-27T06:31:14.814Z,8.48
2019-03-27T06:33:46.215Z,11.18
2019-03-27T06:36:17.621Z,7.45
2019-03-27T06:38:49.004Z,9.60
2019-03-27T06:41:20.475Z,10.13
2019-03-27T06:43:51.863Z,11.18
2019-03-27T06:46:23.256Z,9.88
2019-03-27T06:48:54.633Z,8.15
2019-03-27T06:51:39.388Z,7.97
2019-03-27T06:54:00.018Z,5.90
2019-03-27T06:56:31.400Z,5.05
2019-03-27T06:59:02.811Z,3.95
2019-03-27T07:01:34.305Z,4.08
2019-03-27T07:04:10.652Z,6.28
2019-03-27T07:06:38.700Z,4.45
2019-03-27T07:09:11.025Z,9.13
2019-03-27T07:11:42.433Z,4.92
2019-03-27T07:14:13.776Z,3.22
2019-03-27T07:16:45.193Z,5.65
2019-03-27T07:19:16.596Z,3.90
2019-03-27T07:21:47.976Z,4.87
2019-03-27T07:24:19.535Z,7.50
2019-03-27T07:26:50.934Z,5.15
2019-03-27T07:29:22.291Z,7.03
2019-03-27T07:31:53.722Z,9.03
2019-03-27T07:34:25.184Z,7.35
2019-03-27T07:36:56.601Z,7.72
2019-03-27T07:39:27.982Z,5.55
2019-03-27T07:41:59.372Z,6.50
2019-03-27T07:44:30.769Z,7.87
2019-03-27T07:47:02.152Z,2.70
2019-03-27T07:49:33.541Z,7.50
2019-03-27T07:52:05.039Z,5.22
2019-03-27T07:54:37.521Z,10.70
2019-03-27T07:57:08.902Z,18.62
2019-03-27T07:59:40.294Z,10.85
2019-03-27T08:02:11.678Z,5.62
2019-03-27T08:04:43.096Z,7.95
2019-03-27T08:07:26.291Z,8.00
2019-03-27T08:09:47.620Z,16.57
2019-03-27T08:12:19.057Z,9.28
2019-03-27T08:14:50.437Z,9.13
2019-03-27T08:17:21.817Z,9.65
2019-03-27T08:19:53.240Z,18.48
2019-03-27T08:22:24.688Z,11.38
2019-03-27T08:24:56.064Z,5.53
2019-03-27T08:27:27.436Z,6.50
2019-03-27T08:29:58.802Z,8.68
2019-03-27T08:32:30.300Z,7.55
2019-03-27T08:35:01.697Z,8.38
2019-03-27T08:37:33.172Z,4.05
2019-03-27T08:40:04.913Z,6.75
2019-03-27T08:42:36.329Z,7.95
2019-03-27T08:45:09.363Z,9.55
2019-03-27T08:47:40.968Z,14.53
2019-03-27T08:50:13.104Z,19.67
2019-03-27T08:52:44.689Z,18.67
2019-03-27T08:55:16.305Z,15.25
2019-03-27T08:57:47.737Z,14.10
2019-03-27T09:00:22.925Z,13.20
2019-03-27T09:02:54.556Z,13.72
2019-03-27T09:05:25.913Z,13.98
2019-03-27T09:07:57.289Z,10.50
2019-03-27T09:10:28.670Z,10.65
2019-03-27T09:13:00.051Z,13.93
2019-03-27T09:15:31.433Z,5.45
2019-03-27T09:18:02.953Z,8.78
2019-03-27T09:20:34.429Z,8.30
2019-03-27T09:23:05.874Z,12.23
2019-03-27T09:25:37.188Z,10.98
2019-03-27T09:28:08.678Z,8.60
2019-03-27T09:30:40.035Z,4.78
2019-03-27T09:33:11.390Z,4.80
2019-03-27T09:35:42.769Z,4.65
2019-03-27T09:38:14.176Z,9.10
2019-03-27T09:40:45.646Z,12.88
2019-03-27T09:43:17.016Z,36.75
2019-03-27T09:45:48.407Z,9.38
2019-03-27T09:48:19.788Z,8.83
2019-03-27T09:50:51.198Z,4.67
2019-03-27T09:53:22.553Z,12.78
2019-03-27T09:55:54.039Z,20.75
2019-03-27T09:58:25.428Z,5.55
2019-03-27T10:01:05.628Z,7.30
2019-03-27T10:03:37.037Z,5.08
2019-03-27T10:06:08.564Z,6.25
2019-03-27T10:08:40.969Z,6.65
2019-03-27T10:11:12.353Z,14.53
2019-03-27T10:13:44.776Z,12.68
2019-03-27T10:16:16.174Z,14.53
2019-03-27T10:18:47.774Z,8.35
2019-03-27T10:21:21.777Z,13.25
2019-03-27T10:23:53.152Z,16.25
2019-03-27T10:26:24.508Z,14.10
2019-03-27T10:28:55.893Z,11.45
2019-03-27T10:31:27.253Z,13.78
2019-03-27T10:33:58.661Z,10.72
2019-03-27T10:36:31.208Z,10.05
2019-03-27T10:39:02.591Z,11.68
2019-03-27T10:41:36.259Z,11.57
2019-03-27T10:44:07.616Z,10.05
2019-03-27T10:46:38.961Z,9.23
2019-03-27T10:49:10.345Z,9.13
2019-03-27T10:51:41.701Z,11.83
2019-03-27T10:54:13.232Z,9.70
2019-03-27T10:56:50.946Z,9.75
2019-03-27T10:59:25.064Z,7.10
2019-03-27T11:01:56.457Z,10.03
2019-03-27T11:04:29.025Z,19.05
2019-03-27T11:07:00.417Z,7.12
2019-03-27T11:09:31.845Z,7.62
2019-03-27T11:12:04.556Z,5.20
2019-03-27T11:14:38.448Z,6.15
2019-03-27T11:17:11.219Z,6.83
2019-03-27T11:19:42.590Z,4.45
2019-03-27T11:22:13.957Z,5.45
2019-03-27T11:24:53.406Z,7.97
2019-03-27T11:27:31.675Z,11.33
2019-03-27T11:30:05.469Z,7.20
2019-03-27T11:32:37.555Z,7.20
2019-03-27T11:35:10.457Z,6.08
2019-03-27T11:37:48.633Z,6.12
2019-03-27T11:40:26.947Z,13.10
2019-03-27T11:43:04.499Z,17.85
2019-03-27T11:45:36.997Z,9.63
2019-03-27T11:48:11.217Z,9.40
2019-03-27T11:50:45.614Z,9.43
2019-03-27T11:53:36.377Z,13.60
2019-03-27T11:56:09.709Z,7.72
2019-03-27T11:58:42.889Z,6.28
2019-03-27T12:01:20.241Z,5.03
2019-03-27T12:04:04.837Z,4.20
2019-03-27T12:07:14.889Z,7.08
2019-03-27T12:10:12.394Z,6.50
2019-03-27T12:12:55.409Z,5.72
2019-03-27T12:16:02.393Z,6.78
2019-03-27T12:18:58.469Z,4.22
2019-03-27T12:21:57.013Z,8.00
2019-03-27T12:25:15.102Z,9.55
2019-03-27T12:28:10.077Z,12.65
2019-03-27T12:31:02.715Z,10.85
2019-03-27T12:33:55.878Z,14.60
2019-03-27T12:37:00.259Z,14.00
2019-03-27T12:40:01.959Z,12.63
2019-03-27T12:42:57.739Z,15.38
2019-03-27T12:45:44.405Z,18.55
2019-03-27T12:48:43.553Z,21.93
2019-03-27T12:51:30.191Z,31.75
2019-03-27T12:54:03.227Z,12.82
2019-03-27T12:56:34.614Z,13.58
2019-03-27T12:59:09.203Z,14.63
2019-03-27T13:01:40.704Z,19.48
2019-03-27T13:04:12.109Z,15.88
2019-03-27T13:06:43.625Z,23.30
2019-03-27T13:09:15.150Z,21.50
2019-03-27T13:11:46.525Z,11.43
2019-03-27T13:14:17.952Z,13.35
2019-03-27T13:16:52.211Z,11.90
2019-03-27T13:19:22.441Z,13.72
2019-03-27T13:21:53.814Z,10.90
2019-03-27T13:24:25.222Z,9.58
2019-03-27T13:26:56.637Z,17.55
2019-03-27T13:29:28.065Z,15.65
2019-03-27T13:31:59.950Z,22.50
2019-03-27T13:34:31.354Z,12.53
2019-03-27T13:37:02.731Z,12.18
2019-03-27T13:39:36.867Z,12.03
2019-03-27T13:42:11.645Z,9.95
2019-03-27T13:44:47.286Z,9.33
2019-03-27T13:47:19.457Z,8.70
2019-03-27T13:49:51.278Z,11.05
2019-03-27T13:52:22.673Z,8.88
2019-03-27T13:54:54.078Z,12.45
2019-03-27T13:57:25.569Z,10.85
2019-03-27T13:59:59.058Z,10.10
2019-03-27T14:02:31.156Z,11.33
2019-03-27T14:05:02.597Z,8.83
2019-03-27T14:07:35.211Z,8.95
2019-03-27T14:10:07.141Z,8.33
2019-03-27T14:12:38.530Z,13.80
2019-03-27T14:15:10.753Z,7.70
2019-03-27T14:17:42.245Z,8.38
2019-03-27T14:20:14.468Z,7.85
2019-03-27T14:22:46.854Z,6.28
2019-03-27T14:25:21.774Z,5.87
2019-03-27T14:27:51.705Z,7.83
2019-03-27T14:30:52.130Z,4.83
2019-03-27T14:33:23.577Z,5.65
2019-03-27T14:35:54.956Z,8.10
2019-03-27T14:38:26.548Z,8.35
2019-03-27T14:40:58.555Z,6.85
2019-03-27T14:43:29.963Z,4.30
2019-03-27T14:46:01.369Z,8.93
2019-03-27T14:48:32.750Z,5.22
2019-03-27T14:51:04.255Z,6.28
2019-03-27T14:53:37.453Z,4.72
2019-03-27T14:56:09.512Z,6.22
2019-03-27T14:58:41.269Z,9.28
2019-03-27T15:01:12.645Z,6.12
2019-03-27T15:03:45.184Z,4.50
2019-03-27T15:06:18.228Z,6.03
2019-03-27T15:08:49.628Z,6.47
2019-03-27T15:11:21.314Z,5.37
2019-03-27T15:13:53.440Z,3.85
2019-03-27T15:16:24.810Z,3.72
2019-03-27T15:18:56.157Z,6.33
2019-03-27T15:21:27.547Z,5.53
2019-03-27T15:23:58.900Z,5.00
2019-03-27T15:26:30.379Z,4.72
2019-03-27T15:29:01.721Z,5.50
2019-03-27T15:31:33.114Z,5.58
2019-03-27T15:34:04.645Z,5.33
2019-03-27T15:36:36.028Z,4.50
2019-03-27T15:39:08.786Z,6.90
2019-03-27T15:41:40.164Z,5.17
2019-03-27T15:44:11.508Z,6.65
2019-03-27T15:46:42.909Z,5.70
2019-03-27T15:49:14.293Z,3.92
2019-03-27T15:51:45.669Z,7.80
2019-03-27T15:54:17.046Z,6.10
2019-03-27T15:56:48.431Z,8.90
2019-03-27T15:59:19.808Z,7.70
2019-03-27T16:01:57.918Z,5.72
2019-03-27T16:04:29.600Z,5.30
2019-03-27T16:07:00.983Z,11.88
2019-03-27T16:09:32.351Z,8.60
2019-03-27T16:12:03.922Z,8.05
2019-03-27T16:14:35.788Z,8.30
2019-03-27T16:17:13.752Z,11.20
2019-03-27T16:19:41.034Z,9.50
2019-03-27T16:22:13.827Z,9.38
2019-03-27T16:24:45.197Z,8.73
2019-03-27T16:27:18.569Z,7.50
2019-03-27T16:29:50.957Z,9.38
2019-03-27T16:32:22.427Z,10.40
2019-03-27T16:34:53.805Z,9.53
2019-03-27T16:37:25.236Z,12.43
2019-03-27T16:39:57.703Z,12.35
2019-03-27T16:42:29.097Z,13.75
2019-03-27T16:45:00.505Z,12.13
2019-03-27T16:47:31.952Z,12.23
2019-03-27T16:50:03.709Z,13.72
2019-03-27T16:52:35.490Z,16.57
2019-03-27T16:55:08.058Z,17.15
2019-03-27T16:57:40.472Z,21.35
2019-03-27T17:00:12.255Z,21.73
2019-03-27T17:02:43.646Z,18.42
2019-03-27T17:05:16.075Z,15.70
2019-03-27T17:07:47.525Z,15.93
2019-03-27T17:10:19.028Z,15.70
2019-03-27T17:12:50.417Z,18.30
2019-03-27T17:15:21.780Z,24.90
2019-03-27T17:17:53.176Z,21.62
2019-03-27T17:20:24.533Z,18.92
2019-03-27T17:22:55.936Z,27.27
2019-03-27T17:25:27.313Z,22.27
2019-03-27T17:27:58.776Z,28.83
2019-03-27T17:30:31.976Z,28.57
2019-03-27T17:33:03.226Z,20.57
2019-03-27T17:35:34.623Z,19.95
2019-03-27T17:38:06.197Z,17.65
2019-03-27T17:40:37.621Z,22.80
2019-03-27T17:43:09.008Z,24.67
2019-03-27T17:45:40.566Z,23.05
2019-03-27T17:48:11.990Z,21.27
2019-03-27T17:50:43.346Z,22.48
2019-03-27T17:53:14.855Z,26.37
2019-03-27T17:55:46.293Z,23.12
2019-03-27T17:58:17.670Z,19.50
2019-03-27T18:00:57.428Z,17.60
2019-03-27T18:03:28.864Z,20.45
2019-03-27T18:06:00.257Z,21.20
2019-03-27T18:08:31.780Z,16.62
2019-03-27T18:11:03.549Z,20.40
2019-03-27T18:13:35.130Z,19.30
2019-03-27T18:16:06.590Z,16.95
2019-03-27T18:18:38.001Z,18.62
2019-03-27T18:21:09.415Z,16.55
2019-03-27T18:23:46.422Z,17.65
2019-03-27T18:26:14.245Z,31.35
2019-03-27T18:28:45.844Z,23.32
2019-03-27T18:31:17.292Z,20.90
2019-03-27T18:33:49.521Z,19.87
2019-03-27T18:36:21.060Z,17.70
2019-03-27T18:38:52.552Z,18.10
2019-03-27T18:41:25.472Z,18.35
2019-03-27T18:43:59.000Z,15.72
2019-03-27T18:46:32.187Z,15.53
2019-03-27T18:49:03.744Z,16.50
2019-03-27T18:51:46.643Z,15.40
2019-03-27T18:54:23.399Z,16.55
2019-03-27T18:56:53.257Z,13.55
2019-03-27T18:59:24.717Z,20.92
2019-03-27T19:01:56.318Z,16.42
2019-03-27T19:04:27.759Z,17.95
2019-03-27T19:06:59.237Z,18.37
2019-03-27T19:09:30.666Z,19.73
2019-03-27T19:12:02.268Z,20.55
2019-03-27T19:14:33.752Z,19.05
2019-03-27T19:17:05.181Z,20.30
2019-03-27T19:19:36.597Z,18.70
2019-03-27T19:22:08.073Z,17.75
2019-03-27T19:24:40.488Z,16.77
2019-03-27T19:27:12.098Z,18.50
2019-03-27T19:29:44.972Z,12.68
2019-03-27T19:32:17.761Z,12.88
2019-03-27T19:34:51.123Z,14.73
2019-03-27T19:37:22.246Z,14.53
2019-03-27T19:39:53.674Z,13.90
2019-03-27T19:42:25.081Z,15.65
2019-03-27T19:44:56.599Z,14.55
2019-03-27T19:47:28.097Z,14.10
2019-03-27T19:49:59.556Z,17.17
2019-03-27T19:52:31.030Z,14.80
2019-03-27T19:55:03.669Z,22.17
2019-03-27T19:57:35.092Z,18.57
2019-03-27T20:00:08.700Z,22.27
2019-03-27T20:02:40.311Z,23.60
2019-03-27T20:05:14.538Z,20.40
2019-03-27T20:07:46.017Z,23.87
2019-03-27T20:10:18.542Z,27.00
2019-03-27T20:12:52.073Z,32.60
2019-03-27T20:15:31.814Z,31.05
2019-03-27T20:18:05.024Z,39.00
2019-03-27T20:20:40.098Z,29.07
2019-03-27T20:23:15.062Z,33.60
2019-03-27T20:25:45.228Z,32.90
2019-03-27T20:28:18.619Z,31.73
2019-03-27T20:30:51.811Z,28.12
2019-03-27T20:33:26.159Z,32.60
2019-03-27T20:35:57.885Z,27.13
2019-03-27T20:38:29.777Z,26.12
2019-03-27T20:41:01.361Z,27.32
2019-03-27T20:43:32.836Z,24.75
2019-03-27T20:46:04.216Z,20.25
2019-03-27T20:48:35.595Z,19.67
2019-03-27T20:51:08.217Z,20.40
2019-03-27T20:53:49.166Z,19.40
2019-03-27T20:56:28.528Z,21.52
2019-03-27T20:59:01.459Z,16.07
2019-03-27T21:01:33.407Z,19.10
2019-03-27T21:04:07.852Z,14.63
2019-03-27T21:06:39.717Z,19.30
2019-03-27T21:09:11.167Z,20.32
2019-03-27T21:11:42.981Z,15.40
2019-03-27T21:14:14.433Z,15.30
2019-03-27T21:16:45.890Z,16.10
2019-03-27T21:19:17.340Z,14.15
2019-03-27T21:21:48.862Z,15.85
2019-03-27T21:24:20.305Z,13.83
2019-03-27T21:26:51.694Z,12.88
2019-03-27T21:29:23.415Z,16.12
2019-03-27T21:31:54.802Z,14.80
2019-03-27T21:34:26.172Z,15.08
2019-03-27T21:36:57.588Z,14.20
2019-03-27T21:39:29.071Z,16.00
2019-03-27T21:42:00.630Z,17.23
2019-03-27T21:44:34.678Z,18.32
2019-03-27T21:47:06.747Z,16.23
2019-03-27T21:49:38.648Z,16.07
2019-03-27T21:52:14.943Z,20.70
2019-03-27T21:54:46.605Z,18.90
2019-03-27T21:57:21.012Z,13.78
2019-03-27T21:59:52.819Z,16.70
2019-03-27T22:02:25.374Z,19.48
2019-03-27T22:04:57.843Z,18.20
2019-03-27T22:07:30.092Z,16.52
2019-03-27T22:10:01.628Z,19.55
2019-03-27T22:12:33.374Z,17.90
2019-03-27T22:15:08.867Z,16.27
2019-03-27T22:17:40.894Z,19.65
2019-03-27T22:20:12.777Z,18.00
2019-03-27T22:22:44.306Z,18.15
2019-03-27T22:25:16.870Z,12.73
2019-03-27T22:27:48.305Z,15.95
2019-03-27T22:30:21.928Z,13.43
2019-03-27T22:32:53.906Z,17.42
2019-03-27T22:35:25.402Z,14.95
2019-03-27T22:37:57.040Z,15.78
2019-03-27T22:40:29.910Z,15.75
2019-03-27T22:43:05.243Z,14.87
2019-03-27T22:45:38.890Z,20.37
2019-03-27T22:48:10.458Z,18.40
2019-03-27T22:50:41.999Z,18.05
2019-03-27T22:53:13.566Z,17.73
2019-03-27T22:55:50.174Z,21.42
2019-03-27T22:58:18.324Z,18.60
2019-03-27T23:00:54.890Z,18.85
2019-03-27T23:03:26.616Z,15.18
2019-03-27T23:05:58.379Z,15.23
2019-03-27T23:08:30.016Z,20.82
2019-03-27T23:11:01.793Z,17.70
2019-03-27T23:13:33.342Z,18.00
2019-03-27T23:16:05.251Z,15.95
2019-03-27T23:18:36.895Z,16.62
2019-03-27T23:21:08.427Z,15.63
2019-03-27T23:23:39.983Z,16.00
2019-03-27T23:26:11.460Z,17.17
2019-03-27T23:28:43.000Z,10.63
2019-03-27T23:31:14.568Z,14.40
2019-03-27T23:33:46.094Z,16.73
2019-03-27T23:36:17.534Z,13.58
2019-03-27T23:38:49.068Z,17.73
2019-03-27T23:41:20.844Z,15.95
2019-03-27T23:43:52.655Z,14.33
2019-03-27T23:46:24.268Z,14.80
2019-03-27T23:48:55.969Z,16.48
2019-03-27T23:51:27.746Z,13.48
2019-03-27T23:53:59.891Z,17.07
2019-03-27T23:56:31.611Z,15.98
2019-03-27T23:59:03.485Z,18.00
